createdAt,value
2023-05-01T00:02:17.896Z,4.22
2023-05-01T00:04:47.153Z,4.17
2023-05-01T00:07:16.984Z,4.11
2023-05-01T00:09:46.369Z,4.05
2023-05-01T00:12:15.063Z,3.97
2023-05-01T00:14:44.306Z,3.92
2023-05-01T00:17:13.253Z,3.85
2023-05-01T00:19:41.943Z,3.80
2023-05-01T00:22:10.834Z,3.76
2023-05-01T00:24:39.606Z,3.72
2023-05-01T00:27:09.215Z,3.69
2023-05-01T00:29:38.537Z,3.65
2023-05-01T00:32:07.954Z,3.62
2023-05-01T00:34:36.504Z,3.58
2023-05-01T00:37:05.505Z,3.54
2023-05-01T00:39:35.138Z,3.51
2023-05-01T00:42:04.311Z,3.49
2023-05-01T00:44:33.094Z,3.46
2023-05-01T00:47:02.829Z,3.42
2023-05-01T00:49:31.804Z,3.36
2023-05-01T00:52:00.486Z,3.28
2023-05-01T00:54:29.591Z,3.21
2023-05-01T00:56:59.282Z,3.14
2023-05-01T00:59:28.589Z,3.09
2023-05-01T01:01:57.268Z,3.06
2023-05-01T01:04:29.274Z,3.04
2023-05-01T01:07:26.185Z,3.03
2023-05-01T01:09:57.890Z,3.00
2023-05-01T01:12:39.223Z,2.98
2023-05-01T01:15:27.575Z,2.96
2023-05-01T01:18:09.965Z,2.93
2023-05-01T01:21:11.455Z,2.89
2023-05-01T01:24:02.330Z,2.84
2023-05-01T01:26:52.113Z,2.77
2023-05-01T01:29:48.662Z,2.67
2023-05-01T01:32:42.567Z,2.58
2023-05-01T01:35:21.773Z,2.53
2023-05-01T01:37:58.558Z,2.50
2023-05-01T01:40:34.691Z,2.48
2023-05-01T01:43:06.245Z,2.44
2023-05-01T01:45:44.162Z,2.39
2023-05-01T01:48:18.031Z,2.35
2023-05-01T01:50:47.877Z,2.33
2023-05-01T01:53:18.789Z,2.29
2023-05-01T01:55:48.719Z,2.26
2023-05-01T01:58:17.925Z,2.23
2023-05-01T02:00:48.144Z,2.22
2023-05-01T02:03:18.316Z,2.19
2023-05-01T02:05:47.671Z,2.14
2023-05-01T02:08:17.694Z,2.09
2023-05-01T02:10:48.223Z,2.07
2023-05-01T02:13:17.924Z,2.03
2023-05-01T02:15:47.548Z,2.01
2023-05-01T02:18:16.807Z,1.99
2023-05-01T02:20:45.926Z,1.97
2023-05-01T02:23:15.425Z,1.96
2023-05-01T02:25:45.470Z,1.95
2023-05-01T02:28:16.496Z,1.94
2023-05-01T02:30:47.608Z,1.92
2023-05-01T02:33:16.744Z,1.89
2023-05-01T02:35:48.401Z,1.83
2023-05-01T02:38:18.105Z,1.77
2023-05-01T02:40:51.237Z,1.72
2023-05-01T02:43:21.928Z,1.68
2023-05-01T02:45:51.998Z,1.65
2023-05-01T02:48:24.358Z,1.61
2023-05-01T02:50:54.403Z,1.57
2023-05-01T02:53:23.325Z,1.53
2023-05-01T02:55:55.105Z,1.51
2023-05-01T02:58:24.275Z,1.48
2023-05-01T03:00:52.993Z,1.45
2023-05-01T03:03:23.142Z,1.42
2023-05-01T03:05:52.673Z,1.40
2023-05-01T03:08:21.354Z,1.38
2023-05-01T03:10:51.625Z,1.35
2023-05-01T03:13:20.488Z,1.30
2023-05-01T03:15:49.994Z,1.29
2023-05-01T03:18:18.903Z,1.27
2023-05-01T03:20:57.370Z,1.25
2023-05-01T03:23:26.681Z,1.23
2023-05-01T03:25:55.266Z,1.22
2023-05-01T03:28:24.463Z,1.21
2023-05-01T03:30:53.977Z,1.22
2023-05-01T03:33:23.255Z,1.23
2023-05-01T03:36:01.126Z,1.24
2023-05-01T03:38:31.084Z,1.26
2023-05-01T03:41:11.971Z,1.27
2023-05-01T03:43:46.978Z,1.26
2023-05-01T03:46:33.433Z,1.24
2023-05-01T03:49:02.574Z,1.24
2023-05-01T03:51:33.408Z,1.25
2023-05-01T03:54:02.341Z,1.28
2023-05-01T03:56:37.028Z,1.33
2023-05-01T03:59:07.064Z,1.39
2023-05-01T04:01:35.964Z,1.46
2023-05-01T04:04:05.153Z,1.55
2023-05-01T04:06:34.567Z,1.64
2023-05-01T04:09:03.938Z,1.73
2023-05-01T04:11:32.748Z,1.83
2023-05-01T04:14:01.926Z,1.95
2023-05-01T04:16:31.157Z,2.05
2023-05-01T04:19:01.367Z,2.17
2023-05-01T04:21:32.198Z,2.30
2023-05-01T04:24:01.175Z,2.44
2023-05-01T04:26:31.406Z,2.60
2023-05-01T04:29:02.710Z,2.74
2023-05-01T04:31:31.892Z,2.90
2023-05-01T04:34:00.728Z,3.06
2023-05-01T04:36:30.150Z,3.22
2023-05-01T04:38:58.814Z,3.38
2023-05-01T04:41:29.180Z,3.56
2023-05-01T04:43:57.849Z,3.74
2023-05-01T04:46:26.838Z,3.92
2023-05-01T04:48:55.825Z,4.11
2023-05-01T04:51:24.505Z,4.30
2023-05-01T04:53:54.619Z,4.51
2023-05-01T04:56:26.193Z,4.72
2023-05-01T04:58:57.740Z,4.92
2023-05-01T05:01:27.982Z,5.10
2023-05-01T05:03:57.313Z,5.30
2023-05-01T05:06:26.700Z,5.49
2023-05-01T05:08:57.513Z,5.70
2023-05-01T05:11:26.914Z,5.90
2023-05-01T05:14:12.900Z,6.09
2023-05-01T05:16:42.205Z,6.28
2023-05-01T05:19:12.297Z,6.46
2023-05-01T05:21:43.045Z,6.64
2023-05-01T05:24:12.551Z,6.82
2023-05-01T05:26:41.965Z,6.99
2023-05-01T05:29:11.147Z,7.17
2023-05-01T05:31:40.099Z,7.36
2023-05-01T05:34:09.224Z,7.55
2023-05-01T05:36:38.422Z,7.71
2023-05-01T05:39:07.529Z,7.84
2023-05-01T05:41:37.147Z,7.98
2023-05-01T05:44:06.335Z,8.15
2023-05-01T05:46:35.416Z,8.33
2023-05-01T05:49:04.221Z,8.51
2023-05-01T05:51:33.527Z,8.68
2023-05-01T05:54:03.220Z,8.86
2023-05-01T05:56:32.523Z,9.02
2023-05-01T05:59:04.283Z,9.17
2023-05-01T06:01:33.583Z,9.36
2023-05-01T06:04:02.894Z,9.54
2023-05-01T06:06:32.768Z,9.73
2023-05-01T06:09:02.984Z,9.88
2023-05-01T06:11:32.827Z,10.05
2023-05-01T06:14:04.058Z,10.22
2023-05-01T06:16:34.583Z,10.34
2023-05-01T06:19:04.830Z,10.48
2023-05-01T06:21:36.395Z,10.62
2023-05-01T06:24:06.563Z,10.77
2023-05-01T06:26:44.314Z,10.92
2023-05-01T06:29:13.410Z,11.03
2023-05-01T06:31:42.775Z,11.11
2023-05-01T06:34:12.224Z,11.20
2023-05-01T06:36:59.616Z,11.32
2023-05-01T06:39:28.801Z,11.43
2023-05-01T06:41:57.913Z,11.55
2023-05-01T06:44:36.649Z,11.65
2023-05-01T06:47:06.030Z,11.69
2023-05-01T06:49:34.822Z,11.77
2023-05-01T06:52:04.438Z,11.91
2023-05-01T06:54:33.125Z,12.01
2023-05-01T06:57:02.100Z,12.08
2023-05-01T06:59:32.020Z,12.15
2023-05-01T07:02:01.149Z,12.21
2023-05-01T07:04:29.822Z,12.26
2023-05-01T07:06:58.580Z,12.29
2023-05-01T07:09:27.574Z,12.28
2023-05-01T07:11:58.960Z,12.28
2023-05-01T07:14:28.227Z,12.32
2023-05-01T07:16:57.441Z,12.36
2023-05-01T07:19:26.626Z,12.42
2023-05-01T07:21:55.727Z,12.49
2023-05-01T07:24:24.507Z,12.62
2023-05-01T07:26:53.306Z,12.73
2023-05-01T07:29:22.186Z,12.80
2023-05-01T07:31:51.020Z,12.89
2023-05-01T07:34:20.065Z,12.98
2023-05-01T07:36:48.966Z,13.04
2023-05-01T07:39:18.529Z,13.09
2023-05-01T07:41:48.085Z,13.12
2023-05-01T07:44:17.291Z,13.14
2023-05-01T07:46:46.066Z,13.19
2023-05-01T07:49:14.937Z,13.24
2023-05-01T07:51:45.327Z,13.30
2023-05-01T07:54:16.603Z,13.37
2023-05-01T07:56:46.354Z,13.39
2023-05-01T07:59:16.746Z,13.39
2023-05-01T08:01:52.003Z,13.40
2023-05-01T08:04:28.998Z,13.44
2023-05-01T08:06:58.994Z,13.50
2023-05-01T08:09:29.101Z,13.52
2023-05-01T08:11:58.103Z,13.51
2023-05-01T08:14:26.884Z,13.55
2023-05-01T08:16:56.295Z,13.65
2023-05-01T08:19:25.802Z,13.71
2023-05-01T08:21:55.972Z,13.75
2023-05-01T08:24:24.889Z,13.77
2023-05-01T08:26:53.964Z,13.77
2023-05-01T08:29:23.412Z,13.76
2023-05-01T08:31:53.067Z,13.73
2023-05-01T08:34:23.170Z,13.71
2023-05-01T08:36:52.437Z,13.73
2023-05-01T08:39:22.162Z,13.75
2023-05-01T08:41:51.647Z,13.79
2023-05-01T08:44:26.035Z,13.89
2023-05-01T08:47:03.319Z,13.94
2023-05-01T08:49:35.147Z,13.98
2023-05-01T08:52:05.107Z,14.03
2023-05-01T08:54:34.271Z,14.03
2023-05-01T08:57:08.904Z,14.04
2023-05-01T08:59:40.086Z,14.09
2023-05-01T09:02:10.390Z,14.17
2023-05-01T09:04:41.353Z,14.21
2023-05-01T09:07:13.434Z,14.24
2023-05-01T09:09:42.214Z,14.30
2023-05-01T09:12:26.651Z,14.40
2023-05-01T09:14:56.684Z,14.50
2023-05-01T09:17:26.000Z,14.60
2023-05-01T09:19:54.831Z,14.67
2023-05-01T09:22:24.276Z,14.76
2023-05-01T09:24:52.968Z,14.83
2023-05-01T09:27:21.764Z,14.87
2023-05-01T09:29:50.497Z,14.87
2023-05-01T09:32:26.276Z,14.93
2023-05-01T09:34:56.337Z,14.97
2023-05-01T09:37:27.989Z,15.00
2023-05-01T09:40:02.801Z,15.06
2023-05-01T09:42:35.584Z,15.13
2023-05-01T09:45:13.766Z,15.17
2023-05-01T09:47:44.933Z,15.23
2023-05-01T09:50:33.916Z,15.24
2023-05-01T09:53:05.127Z,15.27
2023-05-01T09:55:34.742Z,15.29
2023-05-01T09:58:04.126Z,15.35
2023-05-01T10:00:33.867Z,15.40
2023-05-01T10:03:14.894Z,15.42
2023-05-01T10:05:44.875Z,15.48
2023-05-01T10:08:16.997Z,15.52
2023-05-01T10:11:00.966Z,15.51
2023-05-01T10:13:30.627Z,15.53
2023-05-01T10:16:01.968Z,15.57
2023-05-01T10:18:31.308Z,15.60
2023-05-01T10:21:00.110Z,15.64
2023-05-01T10:23:29.807Z,15.68
2023-05-01T10:26:00.847Z,15.72
2023-05-01T10:28:31.186Z,15.75
2023-05-01T10:30:59.896Z,15.80
2023-05-01T10:33:29.028Z,15.84
2023-05-01T10:36:00.209Z,15.87
2023-05-01T10:38:37.008Z,15.90
2023-05-01T10:41:07.098Z,15.94
2023-05-01T10:43:35.788Z,15.97
2023-05-01T10:46:10.371Z,15.98
2023-05-01T10:48:45.351Z,16.00
2023-05-01T10:51:17.671Z,16.05
2023-05-01T10:53:47.842Z,16.11
2023-05-01T10:56:25.724Z,16.14
2023-05-01T10:58:56.353Z,16.18
2023-05-01T11:01:48.281Z,16.22
2023-05-01T11:04:20.034Z,16.27
2023-05-01T11:07:08.832Z,16.30
2023-05-01T11:09:46.504Z,16.33
2023-05-01T11:12:16.951Z,16.41
2023-05-01T11:14:55.122Z,16.49
2023-05-01T11:17:42.667Z,16.53
2023-05-01T11:20:12.261Z,16.59
2023-05-01T11:22:46.724Z,16.61
2023-05-01T11:25:23.632Z,16.65
2023-05-01T11:27:55.320Z,16.69
2023-05-01T11:30:24.534Z,16.72
2023-05-01T11:32:53.755Z,16.74
2023-05-01T11:35:27.615Z,16.78
2023-05-01T11:37:57.665Z,16.84
2023-05-01T11:40:31.724Z,16.86
2023-05-01T11:43:05.290Z,16.92
2023-05-01T11:45:39.201Z,16.96
2023-05-01T11:48:16.396Z,16.99
2023-05-01T11:50:45.137Z,17.05
2023-05-01T11:53:18.987Z,17.08
2023-05-01T11:55:47.723Z,17.09
2023-05-01T11:58:16.332Z,17.13
2023-05-01T12:00:45.330Z,17.19
2023-05-01T12:03:15.527Z,17.23
2023-05-01T12:05:46.064Z,17.23
2023-05-01T12:08:23.656Z,17.26
2023-05-01T12:10:58.020Z,17.30
2023-05-01T12:13:27.732Z,17.39
2023-05-01T12:15:57.593Z,17.48
2023-05-01T12:18:26.540Z,17.53
2023-05-01T12:20:55.893Z,17.57
2023-05-01T12:23:33.283Z,17.59
2023-05-01T12:26:03.748Z,17.62
2023-05-01T12:28:32.675Z,17.66
2023-05-01T12:31:05.517Z,17.69
2023-05-01T12:33:34.570Z,17.70
2023-05-01T12:36:11.998Z,17.74
2023-05-01T12:38:40.750Z,17.78
2023-05-01T12:41:12.489Z,17.81
2023-05-01T12:43:42.413Z,17.87
2023-05-01T12:46:15.251Z,17.92
2023-05-01T12:48:43.882Z,17.96
2023-05-01T12:51:21.782Z,17.98
2023-05-01T12:53:52.086Z,18.00
2023-05-01T12:56:26.336Z,18.06
2023-05-01T12:58:56.031Z,18.10
2023-05-01T13:01:29.297Z,18.18
2023-05-01T13:03:59.471Z,18.26
2023-05-01T13:06:34.282Z,18.28
2023-05-01T13:09:10.652Z,18.31
2023-05-01T13:11:39.435Z,18.36
2023-05-01T13:14:12.820Z,18.40
2023-05-01T13:16:47.015Z,18.45
2023-05-01T13:19:27.161Z,18.49
2023-05-01T13:21:59.031Z,18.53
2023-05-01T13:24:46.585Z,18.58
2023-05-01T13:27:15.395Z,18.61
2023-05-01T13:29:53.319Z,18.64
2023-05-01T13:32:21.949Z,18.66
2023-05-01T13:34:51.267Z,18.71
2023-05-01T13:37:21.595Z,18.77
2023-05-01T13:39:50.429Z,18.81
2023-05-01T13:42:24.434Z,18.85
2023-05-01T13:44:57.250Z,18.89
2023-05-01T13:47:27.236Z,18.92
2023-05-01T13:49:56.441Z,18.96
2023-05-01T13:52:25.357Z,18.98
2023-05-01T13:54:56.878Z,18.99
2023-05-01T13:57:25.814Z,18.99
2023-05-01T13:59:54.584Z,18.99
2023-05-01T14:02:30.171Z,19.03
2023-05-01T14:05:00.790Z,19.07
2023-05-01T14:07:30.068Z,19.10
2023-05-01T14:10:00.381Z,19.12
2023-05-01T14:12:31.021Z,19.14
2023-05-01T14:15:01.859Z,19.19
2023-05-01T14:17:33.168Z,19.23
2023-05-01T14:20:02.912Z,19.26
2023-05-01T14:22:44.020Z,19.26
2023-05-01T14:25:23.530Z,19.26
2023-05-01T14:27:53.864Z,19.25
2023-05-01T14:30:30.312Z,19.29
2023-05-01T14:32:58.841Z,19.35
2023-05-01T14:35:28.110Z,19.37
2023-05-01T14:37:58.029Z,19.38
2023-05-01T14:40:28.090Z,19.34
2023-05-01T14:42:58.391Z,19.30
2023-05-01T14:45:27.553Z,19.29
2023-05-01T14:47:56.373Z,19.28
2023-05-01T14:50:28.467Z,19.22
2023-05-01T14:52:59.328Z,19.16
2023-05-01T14:55:34.974Z,19.11
2023-05-01T14:58:04.100Z,19.08
2023-05-01T15:00:32.829Z,19.09
2023-05-01T15:03:02.083Z,19.11
2023-05-01T15:05:31.724Z,19.09
2023-05-01T15:08:04.684Z,19.06
2023-05-01T15:10:34.505Z,19.02
2023-05-01T15:13:03.288Z,19.01
2023-05-01T15:15:32.102Z,19.01
2023-05-01T15:18:00.995Z,18.98
2023-05-01T15:20:30.477Z,18.95
2023-05-01T15:22:59.068Z,18.94
2023-05-01T15:25:27.842Z,18.93
2023-05-01T15:27:57.694Z,18.91
2023-05-01T15:30:26.236Z,18.92
2023-05-01T15:32:56.467Z,18.93
2023-05-01T15:35:26.604Z,18.94
2023-05-01T15:37:57.236Z,18.95
2023-05-01T15:40:25.807Z,18.98
2023-05-01T15:42:54.904Z,18.99
2023-05-01T15:45:23.865Z,19.01
2023-05-01T15:47:52.608Z,19.04
2023-05-01T15:50:22.176Z,19.07
2023-05-01T15:52:53.116Z,19.11
2023-05-01T15:55:22.437Z,19.16
2023-05-01T15:57:51.536Z,19.25
2023-05-01T16:00:22.182Z,19.34
2023-05-01T16:02:51.137Z,19.43
2023-05-01T16:05:23.613Z,19.49
2023-05-01T16:07:55.677Z,19.54
2023-05-01T16:10:25.996Z,19.58
2023-05-01T16:12:54.802Z,19.65
2023-05-01T16:15:23.777Z,19.71
2023-05-01T16:17:55.248Z,19.73
2023-05-01T16:20:24.437Z,19.76
2023-05-01T16:22:53.207Z,19.76
2023-05-01T16:25:22.505Z,19.76
2023-05-01T16:27:52.528Z,19.74
2023-05-01T16:30:25.555Z,19.71
2023-05-01T16:32:54.468Z,19.70
2023-05-01T16:35:27.936Z,19.66
2023-05-01T16:37:57.008Z,19.62
2023-05-01T16:40:25.883Z,19.58
2023-05-01T16:42:55.084Z,19.51
2023-05-01T16:45:23.747Z,19.45
2023-05-01T16:47:52.390Z,19.41
2023-05-01T16:50:23.090Z,19.40
2023-05-01T16:52:55.346Z,19.39
2023-05-01T16:55:25.330Z,19.38
2023-05-01T16:57:54.794Z,19.34
2023-05-01T17:00:23.997Z,19.33
2023-05-01T17:02:55.424Z,19.30
2023-05-01T17:05:24.223Z,19.27
2023-05-01T17:07:53.315Z,19.25
2023-05-01T17:10:22.405Z,19.20
2023-05-01T17:12:51.624Z,19.16
2023-05-01T17:15:20.803Z,19.09
2023-05-01T17:17:49.920Z,19.02
2023-05-01T17:20:19.999Z,18.93
2023-05-01T17:22:49.102Z,18.83
2023-05-01T17:25:18.233Z,18.75
2023-05-01T17:27:46.767Z,18.65
2023-05-01T17:30:16.174Z,18.57
2023-05-01T17:32:45.383Z,18.48
2023-05-01T17:35:17.759Z,18.39
2023-05-01T17:37:46.752Z,18.30
2023-05-01T17:40:16.887Z,18.21
2023-05-01T17:42:46.161Z,18.11
2023-05-01T17:45:15.780Z,17.99
2023-05-01T17:47:47.624Z,17.89
2023-05-01T17:50:16.541Z,17.78
2023-05-01T17:52:46.631Z,17.68
2023-05-01T17:55:18.203Z,17.57
2023-05-01T17:57:48.114Z,17.47
2023-05-01T18:00:18.581Z,17.35
2023-05-01T18:02:49.558Z,17.24
2023-05-01T18:05:18.807Z,17.13
2023-05-01T18:07:49.105Z,17.01
2023-05-01T18:10:18.448Z,16.91
2023-05-01T18:12:51.728Z,16.81
2023-05-01T18:15:22.986Z,16.70
2023-05-01T18:17:53.235Z,16.59
2023-05-01T18:20:24.118Z,16.49
2023-05-01T18:22:54.778Z,16.38
2023-05-01T18:25:24.796Z,16.28
2023-05-01T18:27:56.746Z,16.18
2023-05-01T18:30:30.945Z,16.09
2023-05-01T18:33:01.303Z,16.00
2023-05-01T18:35:33.716Z,15.92
2023-05-01T18:38:03.140Z,15.84
2023-05-01T18:40:33.345Z,15.75
2023-05-01T18:43:05.616Z,15.68
2023-05-01T18:45:35.839Z,15.62
2023-05-01T18:48:07.021Z,15.55
2023-05-01T18:50:38.784Z,15.51
2023-05-01T18:53:09.665Z,15.45
2023-05-01T18:55:39.229Z,15.42
2023-05-01T18:58:09.396Z,15.38
2023-05-01T19:00:40.767Z,15.34
2023-05-01T19:03:15.478Z,15.31
2023-05-01T19:05:46.200Z,15.27
2023-05-01T19:08:16.985Z,15.23
2023-05-01T19:10:47.051Z,15.19
2023-05-01T19:13:18.520Z,15.14
2023-05-01T19:15:48.959Z,15.07
2023-05-01T19:18:18.557Z,15.00
2023-05-01T19:20:48.699Z,14.94
2023-05-01T19:23:23.056Z,14.86
2023-05-01T19:26:01.605Z,14.78
2023-05-01T19:28:38.460Z,14.72
2023-05-01T19:31:14.567Z,14.65
2023-05-01T19:33:54.279Z,14.59
2023-05-01T19:36:29.744Z,14.51
2023-05-01T19:39:08.186Z,14.45
2023-05-01T19:41:42.212Z,14.39
2023-05-01T19:44:19.086Z,14.34
2023-05-01T19:46:53.442Z,14.29
2023-05-01T19:49:27.482Z,14.25
2023-05-01T19:52:04.673Z,14.17
2023-05-01T19:54:45.918Z,14.04
2023-05-01T19:57:19.457Z,13.89
2023-05-01T19:59:50.809Z,13.74
2023-05-01T20:02:24.488Z,13.55
2023-05-01T20:04:58.219Z,13.41
2023-05-01T20:07:34.620Z,13.29
2023-05-01T20:10:09.286Z,13.16
2023-05-01T20:12:41.660Z,13.06
2023-05-01T20:15:12.398Z,12.99
2023-05-01T20:17:42.620Z,12.92
2023-05-01T20:20:11.817Z,12.88
2023-05-01T20:22:41.097Z,12.85
2023-05-01T20:25:11.108Z,12.83
2023-05-01T20:27:41.122Z,12.82
2023-05-01T20:30:12.068Z,12.79
2023-05-01T20:32:44.976Z,12.80
2023-05-01T20:35:14.698Z,12.79
2023-05-01T20:37:43.648Z,12.79
2023-05-01T20:40:13.377Z,12.78
2023-05-01T20:42:43.586Z,12.77
2023-05-01T20:45:13.089Z,12.75
2023-05-01T20:47:42.033Z,12.73
2023-05-01T20:50:11.687Z,12.72
2023-05-01T20:52:40.823Z,12.71
2023-05-01T20:55:10.193Z,12.70
2023-05-01T20:57:40.636Z,12.66
2023-05-01T21:00:09.940Z,12.61
2023-05-01T21:02:39.631Z,12.58
2023-05-01T21:05:12.540Z,12.55
2023-05-01T21:07:41.615Z,12.53
2023-05-01T21:10:11.292Z,12.51
2023-05-01T21:12:45.220Z,12.49
2023-05-01T21:15:15.340Z,12.50
2023-05-01T21:17:44.211Z,12.48
2023-05-01T21:20:17.136Z,12.44
2023-05-01T21:22:46.602Z,12.38
2023-05-01T21:25:20.199Z,12.33
2023-05-01T21:27:48.682Z,12.30
2023-05-01T21:30:37.750Z,12.30
2023-05-01T21:33:08.929Z,12.29
2023-05-01T21:35:42.287Z,12.28
2023-05-01T21:38:11.522Z,12.28
2023-05-01T21:40:43.749Z,12.28
2023-05-01T21:43:15.523Z,12.27
2023-05-01T21:45:50.307Z,12.28
2023-05-01T21:48:20.212Z,12.28
2023-05-01T21:50:50.444Z,12.28
2023-05-01T21:53:20.134Z,12.28
2023-05-01T21:55:49.301Z,12.27
2023-05-01T21:58:18.192Z,12.25
2023-05-01T22:00:47.225Z,12.24
2023-05-01T22:03:18.464Z,12.21
2023-05-01T22:05:47.211Z,12.15
2023-05-01T22:08:15.907Z,12.08
2023-05-01T22:10:45.792Z,12.02
2023-05-01T22:13:14.425Z,11.97
2023-05-01T22:15:43.281Z,11.92
2023-05-01T22:18:18.394Z,11.89
2023-05-01T22:20:52.676Z,11.84
2023-05-01T22:23:27.918Z,11.80
2023-05-01T22:26:01.052Z,11.80
2023-05-01T22:28:34.526Z,11.79
2023-05-01T22:31:07.498Z,11.81
2023-05-01T22:33:38.094Z,11.81
2023-05-01T22:36:07.576Z,11.79
2023-05-01T22:38:36.870Z,11.75
2023-05-01T22:41:06.477Z,11.70
2023-05-01T22:43:35.188Z,11.66
2023-05-01T22:46:06.265Z,11.63
2023-05-01T22:48:35.220Z,11.61
2023-05-01T22:51:04.408Z,11.59
2023-05-01T22:53:33.219Z,11.57
2023-05-01T22:56:02.091Z,11.55
2023-05-01T22:58:30.895Z,11.54
2023-05-01T23:00:59.879Z,11.53
2023-05-01T23:03:34.574Z,11.52
2023-05-01T23:06:08.099Z,11.49
2023-05-01T23:08:42.356Z,11.46
2023-05-01T23:11:22.142Z,11.44
2023-05-01T23:13:56.693Z,11.42
2023-05-01T23:16:28.294Z,11.41
2023-05-01T23:19:01.368Z,11.38
2023-05-01T23:21:34.043Z,11.34
2023-05-01T23:24:06.637Z,11.28
2023-05-01T23:26:42.540Z,11.23
2023-05-01T23:29:18.308Z,11.19
2023-05-01T23:31:50.266Z,11.16
2023-05-01T23:34:20.239Z,11.12
2023-05-01T23:36:49.083Z,11.10
2023-05-01T23:39:18.538Z,11.10
2023-05-01T23:41:47.648Z,11.10
2023-05-01T23:44:16.731Z,11.10
2023-05-01T23:46:45.556Z,11.10
2023-05-01T23:49:14.425Z,11.10
2023-05-01T23:51:45.564Z,11.09
2023-05-01T23:54:14.243Z,11.08
2023-05-01T23:56:43.343Z,11.07
2023-05-01T23:59:12.543Z,11.06
